createdAt,value
2018-02-17T00:01:15.987Z,6.23
2018-02-17T00:03:43.503Z,5.27
2018-02-17T00:06:11.051Z,8.40
2018-02-17T00:08:38.562Z,8.53
2018-02-17T00:11:07.795Z,4.33
2018-02-17T00:13:35.330Z,4.83
2018-02-17T00:16:02.896Z,4.90
2018-02-17T00:18:30.447Z,4.80
2018-02-17T00:20:58.920Z,5.07
2018-02-17T00:23:26.484Z,4.80
2018-02-17T00:25:54.042Z,6.07
2018-02-17T00:28:21.591Z,5.67
2018-02-17T00:30:49.880Z,4.03
2018-02-17T00:33:17.406Z,6.03
2018-02-17T00:35:44.966Z,6.20
2018-02-17T00:38:12.490Z,3.30
2018-02-17T00:40:40.056Z,7.23
2018-02-17T00:43:07.708Z,5.13
2018-02-17T00:45:38.072Z,3.90
2018-02-17T00:48:05.599Z,6.10
2018-02-17T00:50:33.126Z,4.03
2018-02-17T00:53:01.439Z,4.10
2018-02-17T00:55:28.980Z,3.30
2018-02-17T00:57:56.558Z,3.17
2018-02-17T01:00:24.090Z,4.70
2018-02-17T01:02:52.502Z,3.93
2018-02-17T01:05:20.027Z,3.20
2018-02-17T01:07:47.547Z,3.00
2018-02-17T01:10:15.099Z,14.33
2018-02-17T01:12:42.621Z,13.17
2018-02-17T01:15:10.172Z,3.77
2018-02-17T01:17:38.458Z,4.07
2018-02-17T01:20:06.010Z,2.90
2018-02-17T01:22:34.326Z,2.73
2018-02-17T01:25:01.858Z,6.13
2018-02-17T01:27:29.415Z,10.60
2018-02-17T01:29:56.943Z,4.03
2018-02-17T01:32:24.493Z,3.50
2018-02-17T01:34:52.023Z,3.73
2018-02-17T01:37:19.569Z,2.57
2018-02-17T01:39:48.152Z,2.67
2018-02-17T01:42:15.674Z,3.20
2018-02-17T01:44:43.227Z,4.33
2018-02-17T01:47:10.757Z,2.70
2018-02-17T01:49:38.273Z,3.33
2018-02-17T01:52:05.851Z,4.40
2018-02-17T01:54:33.381Z,4.50
2018-02-17T01:57:00.941Z,3.17
2018-02-17T01:59:28.470Z,6.27
2018-02-17T02:01:57.986Z,10.00
2018-02-17T02:04:25.498Z,4.00
2018-02-17T02:06:53.047Z,7.53
2018-02-17T02:09:20.582Z,4.23
2018-02-17T02:11:48.107Z,2.73
2018-02-17T02:14:15.656Z,4.10
2018-02-17T02:16:43.192Z,3.53
2018-02-17T02:19:10.743Z,3.83
2018-02-17T02:21:38.262Z,2.77
2018-02-17T02:24:06.574Z,8.20
2018-02-17T02:26:34.103Z,11.37
2018-02-17T02:29:02.395Z,2.77
2018-02-17T02:31:29.950Z,3.00
2018-02-17T02:33:57.482Z,6.13
2018-02-17T02:36:26.756Z,3.47
2018-02-17T02:38:54.377Z,3.00
2018-02-17T02:41:21.936Z,2.63
2018-02-17T02:43:49.460Z,29.20
2018-02-17T02:46:16.988Z,3.67
2018-02-17T02:48:44.544Z,8.33
2018-02-17T02:51:12.076Z,3.20
2018-02-17T02:53:39.632Z,4.60
2018-02-17T02:56:07.171Z,3.60
2018-02-17T02:58:34.769Z,5.20
2018-02-17T03:01:02.295Z,5.80
2018-02-17T03:03:29.822Z,2.40
2018-02-17T03:05:59.079Z,4.33
2018-02-17T03:08:26.604Z,5.27
2018-02-17T03:10:54.918Z,2.53
2018-02-17T03:13:22.435Z,9.27
2018-02-17T03:15:49.987Z,3.07
2018-02-17T03:18:17.519Z,2.77
2018-02-17T03:20:45.041Z,3.70
2018-02-17T03:23:12.609Z,4.60
2018-02-17T03:25:40.135Z,5.73
2018-02-17T03:28:08.475Z,2.60
2018-02-17T03:30:36.006Z,5.23
2018-02-17T03:33:03.555Z,2.90
2018-02-17T03:35:31.083Z,2.53
2018-02-17T03:37:58.609Z,17.93
2018-02-17T03:40:27.110Z,3.43
2018-02-17T03:42:54.630Z,5.43
2018-02-17T03:45:23.115Z,46.20
2018-02-17T03:47:50.630Z,3.80
2018-02-17T03:50:18.175Z,10.53
2018-02-17T03:52:46.476Z,6.77
2018-02-17T03:55:14.007Z,3.50
2018-02-17T03:57:42.327Z,4.37
2018-02-17T04:00:09.851Z,3.93
2018-02-17T04:02:38.166Z,3.13
2018-02-17T04:05:06.375Z,18.37
2018-02-17T04:07:33.934Z,6.17
2018-02-17T04:10:01.455Z,11.90
2018-02-17T04:12:29.939Z,8.20
2018-02-17T04:14:57.492Z,5.30
2018-02-17T04:17:25.018Z,15.10
2018-02-17T04:19:53.333Z,12.17
2018-02-17T04:22:20.855Z,5.87
2018-02-17T04:24:48.409Z,18.83
2018-02-17T04:27:16.688Z,8.87
2018-02-17T04:29:44.209Z,6.30
2018-02-17T04:32:11.772Z,37.27
2018-02-17T04:34:39.317Z,29.57
2018-02-17T04:37:06.933Z,5.20
2018-02-17T04:39:34.505Z,4.93
2018-02-17T04:42:14.766Z,22.20
2018-02-17T04:44:43.202Z,30.33
2018-02-17T04:50:07.691Z,11.20
2018-02-17T04:52:40.793Z,11.07
2018-02-17T04:58:21.341Z,18.23
2018-02-17T05:01:03.747Z,20.60
2018-02-17T05:03:37.932Z,15.90
2018-02-17T05:06:12.017Z,18.17
2018-02-17T05:08:44.043Z,14.70
2018-02-17T05:11:11.596Z,15.83
2018-02-17T05:13:39.163Z,16.03
2018-02-17T05:16:09.406Z,13.43
2018-02-17T05:18:43.612Z,14.33
2018-02-17T05:21:16.818Z,14.13
2018-02-17T05:23:44.375Z,13.30
2018-02-17T05:26:12.777Z,23.13
2018-02-17T05:28:40.931Z,25.63
2018-02-17T05:31:09.249Z,20.47
2018-02-17T05:36:38.623Z,23.55
2018-02-17T05:39:07.090Z,22.70
2018-02-17T05:44:35.699Z,10.60
2018-02-17T05:47:18.142Z,12.50
2018-02-17T05:49:57.502Z,5.30
2018-02-17T05:52:25.047Z,6.70
2018-02-17T05:54:52.570Z,6.07
2018-02-17T05:57:20.880Z,5.70
2018-02-17T05:59:48.399Z,4.10
2018-02-17T06:02:16.713Z,12.07
2018-02-17T06:04:44.230Z,2.47
2018-02-17T06:07:11.764Z,6.07
2018-02-17T06:09:39.319Z,12.27
2018-02-17T06:12:06.859Z,17.67
2018-02-17T06:14:34.404Z,11.30
2018-02-17T06:17:01.948Z,3.93
2018-02-17T06:19:29.499Z,6.40
2018-02-17T06:21:57.785Z,10.03
2018-02-17T06:24:25.307Z,6.97
2018-02-17T06:26:53.827Z,17.57
2018-02-17T06:29:21.354Z,21.23
2018-02-17T06:31:48.928Z,16.40
2018-02-17T06:34:17.219Z,22.33
2018-02-17T06:36:44.766Z,17.43
2018-02-17T06:39:13.057Z,17.20
2018-02-17T06:41:40.606Z,20.87
2018-02-17T06:44:08.158Z,15.20
2018-02-17T06:46:36.448Z,13.67
2018-02-17T06:49:03.999Z,14.27
2018-02-17T06:51:31.530Z,14.10
2018-02-17T06:53:59.091Z,12.30
2018-02-17T06:56:26.618Z,6.97
2018-02-17T06:58:54.151Z,1.30
2018-02-17T07:01:22.684Z,4.40
2018-02-17T07:03:50.203Z,9.50
2018-02-17T07:06:18.724Z,1.27
2018-02-17T07:08:48.003Z,6.90
2018-02-17T07:11:15.547Z,1.77
2018-02-17T07:13:43.068Z,2.33
2018-02-17T07:16:10.603Z,4.00
2018-02-17T07:18:38.919Z,14.10
2018-02-17T07:21:07.383Z,2.03
2018-02-17T07:23:34.948Z,2.07
2018-02-17T07:26:02.488Z,2.73
2018-02-17T07:28:30.807Z,1.30
2018-02-17T07:30:58.331Z,8.00
2018-02-17T07:33:26.664Z,4.90
2018-02-17T07:35:54.206Z,13.87
2018-02-17T07:38:21.728Z,12.77
2018-02-17T07:40:50.059Z,18.73
2018-02-17T07:43:17.587Z,21.37
2018-02-17T07:45:45.146Z,18.53
2018-02-17T07:48:12.678Z,14.90
2018-02-17T07:50:40.974Z,13.50
2018-02-17T07:53:08.527Z,14.33
2018-02-17T07:55:36.068Z,13.73
2018-02-17T07:58:04.392Z,11.50
2018-02-17T08:00:31.925Z,12.57
2018-02-17T08:02:59.502Z,55.47
2018-02-17T08:05:27.031Z,9.83
2018-02-17T08:07:54.552Z,11.90
2018-02-17T08:10:22.879Z,13.23
2018-02-17T08:12:50.413Z,9.00
2018-02-17T08:15:18.734Z,10.50
2018-02-17T08:17:46.262Z,9.57
2018-02-17T08:20:14.746Z,21.67
2018-02-17T08:22:42.295Z,22.43
2018-02-17T08:25:09.820Z,13.47
2018-02-17T08:27:37.379Z,168.63
2018-02-17T08:30:04.944Z,12.00
2018-02-17T08:32:32.499Z,14.60
2018-02-17T08:35:00.032Z,22.53
2018-02-17T08:37:27.616Z,11.17
2018-02-17T08:39:55.146Z,16.57
2018-02-17T08:42:23.640Z,11.83
2018-02-17T08:44:51.199Z,13.93
2018-02-17T08:47:18.727Z,18.43
2018-02-17T08:49:46.270Z,11.60
2018-02-17T08:52:14.763Z,10.13
2018-02-17T08:54:42.311Z,12.70
2018-02-17T08:57:10.780Z,12.03
2018-02-17T08:59:39.072Z,9.30
2018-02-17T09:02:07.566Z,9.37
2018-02-17T09:04:35.089Z,11.83
2018-02-17T09:07:02.638Z,13.10
2018-02-17T09:09:31.130Z,14.50
2018-02-17T09:11:58.691Z,26.90
2018-02-17T09:14:26.997Z,17.97
2018-02-17T09:16:54.542Z,11.30
2018-02-17T09:19:22.098Z,29.87
2018-02-17T09:21:49.638Z,20.63
2018-02-17T09:24:17.955Z,48.53
2018-02-17T09:26:46.582Z,13.00
2018-02-17T09:29:14.135Z,13.73
2018-02-17T09:31:41.671Z,16.13
2018-02-17T09:34:09.211Z,15.53
2018-02-17T09:36:36.771Z,11.70
2018-02-17T09:39:04.302Z,13.80
2018-02-17T09:41:31.878Z,18.30
2018-02-17T09:43:59.410Z,28.17
2018-02-17T09:46:26.976Z,10.67
2018-02-17T09:48:54.523Z,10.53
2018-02-17T09:51:22.828Z,14.70
2018-02-17T09:53:51.335Z,9.80
2018-02-17T09:56:19.820Z,10.10
2018-02-17T09:58:47.391Z,12.00
2018-02-17T10:01:14.922Z,21.70
2018-02-17T10:03:42.476Z,32.00
2018-02-17T10:06:10.012Z,17.40
2018-02-17T10:08:39.387Z,24.17
2018-02-17T10:11:06.951Z,23.77
2018-02-17T10:13:34.485Z,12.77
2018-02-17T10:16:04.036Z,21.20
2018-02-17T10:18:32.328Z,16.10
2018-02-17T10:21:00.856Z,22.00
2018-02-17T10:23:28.402Z,18.00
2018-02-17T10:25:55.969Z,18.13
2018-02-17T10:28:23.558Z,14.73
2018-02-17T10:30:51.089Z,14.90
2018-02-17T10:33:18.639Z,14.07
2018-02-17T10:35:47.171Z,19.17
2018-02-17T10:38:14.723Z,14.80
2018-02-17T10:40:43.024Z,12.80
2018-02-17T10:43:10.555Z,30.57
2018-02-17T10:45:38.869Z,15.60
2018-02-17T10:48:06.399Z,10.67
2018-02-17T10:50:34.738Z,18.70
2018-02-17T10:53:02.268Z,11.23
2018-02-17T10:55:35.423Z,10.77
2018-02-17T10:58:03.208Z,12.50
2018-02-17T11:00:30.737Z,11.00
2018-02-17T11:02:58.286Z,9.70
2018-02-17T11:05:25.851Z,25.90
2018-02-17T11:07:53.402Z,9.60
2018-02-17T11:10:20.927Z,7.80
2018-02-17T11:12:48.457Z,27.47
2018-02-17T11:15:16.012Z,8.50
2018-02-17T11:17:43.538Z,13.17
2018-02-17T11:20:11.100Z,9.90
2018-02-17T11:22:38.621Z,7.30
2018-02-17T11:25:07.481Z,10.55
2018-02-17T11:27:35.045Z,28.53
2018-02-17T11:30:02.577Z,9.23
2018-02-17T11:32:30.906Z,11.73
2018-02-17T11:34:58.449Z,8.87
2018-02-17T11:37:26.006Z,17.00
2018-02-17T11:39:53.552Z,21.73
2018-02-17T11:42:21.079Z,11.87
2018-02-17T11:44:48.650Z,14.07
2018-02-17T11:47:17.897Z,22.27
2018-02-17T11:49:46.388Z,52.63
2018-02-17T11:52:13.947Z,31.47
2018-02-17T11:54:42.436Z,30.63
2018-02-17T11:57:09.995Z,18.53
2018-02-17T11:59:38.512Z,25.60
2018-02-17T12:02:06.077Z,20.60
2018-02-17T12:04:33.628Z,20.27
2018-02-17T12:07:01.159Z,23.73
2018-02-17T12:09:28.718Z,24.87
2018-02-17T12:11:56.296Z,22.17
2018-02-17T12:14:23.820Z,17.17
2018-02-17T12:16:53.288Z,20.77
2018-02-17T12:19:20.827Z,21.20
2018-02-17T12:21:48.381Z,25.57
2018-02-17T12:24:15.920Z,16.60
2018-02-17T12:26:43.450Z,24.90
2018-02-17T12:29:11.009Z,20.50
2018-02-17T12:31:38.565Z,14.37
2018-02-17T12:34:06.117Z,16.97
2018-02-17T12:36:33.647Z,22.23
2018-02-17T12:39:02.927Z,24.80
2018-02-17T12:41:30.452Z,19.13
2018-02-17T12:43:57.975Z,42.77
2018-02-17T12:46:25.572Z,47.30
2018-02-17T12:48:53.095Z,17.90
2018-02-17T12:51:22.596Z,22.43
2018-02-17T12:53:50.124Z,15.80
2018-02-17T12:56:17.681Z,30.43
2018-02-17T12:58:45.275Z,17.50
2018-02-17T13:01:12.807Z,18.57
2018-02-17T13:03:41.385Z,18.17
2018-02-17T13:06:08.926Z,16.20
2018-02-17T13:08:36.487Z,41.67
2018-02-17T13:11:04.011Z,18.83
2018-02-17T13:13:31.587Z,15.70
2018-02-17T13:16:00.115Z,14.30
2018-02-17T13:18:27.652Z,22.50
2018-02-17T13:20:55.208Z,17.57
2018-02-17T13:23:22.763Z,14.50
2018-02-17T13:25:50.307Z,17.17
2018-02-17T13:28:25.705Z,16.67
2018-02-17T13:30:53.295Z,16.23
2018-02-17T13:33:20.822Z,16.50
2018-02-17T13:35:48.361Z,15.18
2018-02-17T13:38:16.698Z,16.30
2018-02-17T13:40:45.225Z,18.23
2018-02-17T13:43:13.557Z,20.10
2018-02-17T13:45:41.089Z,18.20
2018-02-17T13:48:08.617Z,17.57
2018-02-17T13:50:36.953Z,23.90
2018-02-17T13:53:04.527Z,19.83
2018-02-17T13:55:32.859Z,17.50
2018-02-17T13:58:00.387Z,26.23
2018-02-17T14:00:28.692Z,13.53
2018-02-17T14:02:56.250Z,16.87
2018-02-17T14:05:23.800Z,23.93
2018-02-17T14:07:51.377Z,23.27
2018-02-17T14:10:19.160Z,30.60
2018-02-17T14:12:46.691Z,27.73
2018-02-17T14:15:15.211Z,19.07
2018-02-17T14:17:42.744Z,15.37
2018-02-17T14:20:10.300Z,20.17
2018-02-17T14:22:38.789Z,23.03
2018-02-17T14:25:06.680Z,23.65
2018-02-17T14:27:34.240Z,14.80
2018-02-17T14:30:01.787Z,21.10
2018-02-17T14:32:29.344Z,15.63
2018-02-17T14:34:56.869Z,19.73
2018-02-17T14:37:24.435Z,15.20
2018-02-17T14:39:51.957Z,30.93
2018-02-17T14:42:19.518Z,16.07
2018-02-17T14:44:47.071Z,20.80
2018-02-17T14:47:14.599Z,15.37
2018-02-17T14:49:43.122Z,22.33
2018-02-17T14:52:11.460Z,15.73
2018-02-17T14:54:39.032Z,16.20
2018-02-17T14:57:06.579Z,17.30
2018-02-17T14:59:35.072Z,18.63
2018-02-17T15:02:02.643Z,14.77
2018-02-17T15:04:30.207Z,15.20
2018-02-17T15:06:57.759Z,18.27
2018-02-17T15:09:25.284Z,12.50
2018-02-17T15:11:52.883Z,13.40
2018-02-17T15:14:21.204Z,22.10
2018-02-17T15:16:48.743Z,14.00
2018-02-17T15:19:16.305Z,11.77
2018-02-17T15:21:43.879Z,22.80
2018-02-17T15:24:11.435Z,15.27
2018-02-17T15:26:38.968Z,13.13
2018-02-17T15:29:06.514Z,17.30
2018-02-17T15:31:34.043Z,11.70
2018-02-17T15:34:01.588Z,12.17
2018-02-17T15:36:29.139Z,11.17
2018-02-17T15:38:57.644Z,9.97
2018-02-17T15:41:27.128Z,49.13
2018-02-17T15:43:54.680Z,14.53
2018-02-17T15:46:23.296Z,10.33
2018-02-17T15:48:50.827Z,24.10
2018-02-17T15:51:18.359Z,35.60
2018-02-17T15:53:46.687Z,40.00
2018-02-17T15:56:14.223Z,17.70
2018-02-17T15:58:41.791Z,13.67
2018-02-17T16:01:09.333Z,27.83
2018-02-17T16:03:36.899Z,18.33
2018-02-17T16:06:04.464Z,16.70
2018-02-17T16:08:32.041Z,12.20
2018-02-17T16:11:00.555Z,7.40
2018-02-17T16:13:28.111Z,37.47
2018-02-17T16:15:55.683Z,74.43
2018-02-17T16:18:23.213Z,11.83
2018-02-17T16:20:50.796Z,16.83
2018-02-17T16:23:18.360Z,50.37
2018-02-17T16:25:45.931Z,18.83
2018-02-17T16:28:13.458Z,27.23
2018-02-17T16:30:40.990Z,38.23
2018-02-17T16:33:08.535Z,10.97
2018-02-17T16:35:36.059Z,77.70
2018-02-17T16:38:03.619Z,14.30
2018-02-17T16:40:32.080Z,12.30
2018-02-17T16:42:59.634Z,11.20
2018-02-17T16:45:27.194Z,7.43
2018-02-17T16:47:54.721Z,6.43
2018-02-17T16:50:22.267Z,9.53
2018-02-17T16:52:49.802Z,8.67
2018-02-17T16:55:17.326Z,13.47
2018-02-17T16:57:44.875Z,8.90
2018-02-17T17:00:12.415Z,6.27
2018-02-17T17:02:39.987Z,14.87
2018-02-17T17:05:07.508Z,6.73
2018-02-17T17:07:35.834Z,5.87
2018-02-17T17:10:03.395Z,5.53
2018-02-17T17:12:30.945Z,5.10
2018-02-17T17:14:58.542Z,10.20
2018-02-17T17:17:26.084Z,7.83
2018-02-17T17:19:53.618Z,6.90
2018-02-17T17:22:21.193Z,14.17
2018-02-17T17:24:48.727Z,24.30
2018-02-17T17:27:16.295Z,10.77
2018-02-17T17:29:43.826Z,11.87
2018-02-17T17:32:11.374Z,12.53
2018-02-17T17:34:38.939Z,10.53
2018-02-17T17:37:07.240Z,17.47
2018-02-17T17:39:34.804Z,19.40
2018-02-17T17:42:02.339Z,10.40
2018-02-17T17:44:29.877Z,8.77
2018-02-17T17:46:57.423Z,9.80
2018-02-17T17:49:25.907Z,9.77
2018-02-17T17:51:54.143Z,7.77
2018-02-17T17:54:21.673Z,6.57
2018-02-17T17:56:49.198Z,7.60
2018-02-17T17:59:16.760Z,6.53
2018-02-17T18:01:44.301Z,12.10
2018-02-17T18:04:11.875Z,8.13
2018-02-17T18:06:41.115Z,17.67
2018-02-17T18:09:08.663Z,18.27
2018-02-17T18:11:36.242Z,9.10
2018-02-17T18:14:03.758Z,18.60
2018-02-17T18:16:31.322Z,8.33
2018-02-17T18:18:59.626Z,55.03
2018-02-17T18:21:27.167Z,54.53
2018-02-17T18:23:56.642Z,12.10
2018-02-17T18:26:24.179Z,9.97
2018-02-17T18:28:51.735Z,10.40
2018-02-17T18:31:19.266Z,8.80
2018-02-17T18:33:47.778Z,8.77
2018-02-17T18:36:15.636Z,11.23
2018-02-17T18:38:43.202Z,11.27
2018-02-17T18:41:10.776Z,17.70
2018-02-17T18:43:38.313Z,56.47
2018-02-17T18:46:05.850Z,11.80
2018-02-17T18:48:33.417Z,31.43
2018-02-17T18:51:00.971Z,16.67
2018-02-17T18:53:29.220Z,20.00
2018-02-17T18:55:57.546Z,33.33
2018-02-17T18:58:25.105Z,26.43
2018-02-17T19:00:52.697Z,21.60
2018-02-17T19:03:20.260Z,18.13
2018-02-17T19:05:47.874Z,27.50
2018-02-17T19:08:15.475Z,21.70
2018-02-17T19:10:43.043Z,17.13
2018-02-17T19:13:10.650Z,17.83
2018-02-17T19:15:38.191Z,17.70
2018-02-17T19:18:05.761Z,16.10
2018-02-17T19:20:33.293Z,21.90
2018-02-17T19:23:01.618Z,19.63
2018-02-17T19:25:29.158Z,17.13
2018-02-17T19:27:56.688Z,13.77
2018-02-17T19:30:25.196Z,14.70
2018-02-17T19:32:52.726Z,14.17
2018-02-17T19:35:21.075Z,14.97
2018-02-17T19:37:49.367Z,16.23
2018-02-17T19:40:17.700Z,18.13
2018-02-17T19:42:45.275Z,16.83
2018-02-17T19:45:12.803Z,16.03
2018-02-17T19:47:40.358Z,22.43
2018-02-17T19:50:07.891Z,15.20
2018-02-17T19:52:36.215Z,20.00
2018-02-17T19:55:03.758Z,19.87
2018-02-17T19:57:31.310Z,15.40
2018-02-17T19:59:58.871Z,31.83
2018-02-17T20:02:26.387Z,24.03
2018-02-17T20:04:54.704Z,16.70
2018-02-17T20:07:22.248Z,16.17
2018-02-17T20:09:49.788Z,13.80
2018-02-17T20:12:18.111Z,16.50
2018-02-17T20:14:45.644Z,45.93
2018-02-17T20:17:13.215Z,19.80
2018-02-17T20:19:40.774Z,14.47
2018-02-17T20:22:09.067Z,19.90
2018-02-17T20:24:36.643Z,19.73
2018-02-17T20:27:04.172Z,85.57
2018-02-17T20:29:31.768Z,16.70
2018-02-17T20:32:00.345Z,42.13
2018-02-17T20:34:27.883Z,14.77
2018-02-17T20:36:56.444Z,20.40
2018-02-17T20:39:23.978Z,28.30
2018-02-17T20:41:51.606Z,19.87
2018-02-17T20:44:19.152Z,29.97
2018-02-17T20:46:46.688Z,20.90
2018-02-17T20:49:14.287Z,22.87
2018-02-17T20:51:41.835Z,22.60
2018-02-17T20:54:11.032Z,16.87
2018-02-17T20:56:38.605Z,21.70
2018-02-17T20:59:06.183Z,43.67
2018-02-17T21:01:33.723Z,21.30
2018-02-17T21:04:01.268Z,15.40
2018-02-17T21:06:30.795Z,28.90
2018-02-17T21:08:59.104Z,16.47
2018-02-17T21:11:27.618Z,16.27
2018-02-17T21:13:55.178Z,17.60
2018-02-17T21:16:22.751Z,18.30
2018-02-17T21:18:50.333Z,15.93
2018-02-17T21:21:18.263Z,16.10
2018-02-17T21:23:45.848Z,26.67
2018-02-17T21:26:13.387Z,16.97
2018-02-17T21:28:40.953Z,19.17
2018-02-17T21:31:08.493Z,20.97
2018-02-17T21:33:36.264Z,22.60
2018-02-17T21:36:04.781Z,18.53
2018-02-17T21:38:32.315Z,23.97
2018-02-17T21:41:00.019Z,44.73
2018-02-17T21:43:28.507Z,25.53
2018-02-17T21:45:56.840Z,36.20
2018-02-17T21:48:24.376Z,105.50
2018-02-17T21:50:52.880Z,37.73
2018-02-17T21:53:20.441Z,21.53
2018-02-17T21:55:48.312Z,21.60
2018-02-17T21:58:15.958Z,29.03
2018-02-17T22:00:43.507Z,20.07
2018-02-17T22:03:11.106Z,22.27
2018-02-17T22:05:38.671Z,30.63
2018-02-17T22:08:06.993Z,31.10
2018-02-17T22:10:34.568Z,50.53
2018-02-17T22:13:03.070Z,31.77
2018-02-17T22:15:30.624Z,33.37
2018-02-17T22:17:58.165Z,22.43
2018-02-17T22:20:25.699Z,39.33
2018-02-17T22:22:53.271Z,26.30
2018-02-17T22:25:20.810Z,37.37
2018-02-17T22:27:48.367Z,28.40
2018-02-17T22:30:16.883Z,62.27
2018-02-17T22:32:44.449Z,65.27
2018-02-17T22:35:12.007Z,61.43
2018-02-17T22:37:39.766Z,43.27
2018-02-17T22:40:07.339Z,140.20
2018-02-17T22:42:34.892Z,103.17
2018-02-17T22:45:02.464Z,51.47
2018-02-17T22:47:30.015Z,49.87
2018-02-17T22:49:57.596Z,114.90
2018-02-17T22:52:25.147Z,153.77
2018-02-17T22:54:52.691Z,92.73
2018-02-17T22:57:22.215Z,87.33
2018-02-17T22:59:49.756Z,101.67
2018-02-17T23:02:19.276Z,116.30
2018-02-17T23:04:46.818Z,57.10
2018-02-17T23:07:14.383Z,58.87
2018-02-17T23:09:41.936Z,54.10
2018-02-17T23:12:10.418Z,88.47
2018-02-17T23:14:39.963Z,56.93
2018-02-17T23:17:08.274Z,79.80
2018-02-17T23:19:35.870Z,66.07
2018-02-17T23:22:03.403Z,114.60
2018-02-17T23:24:30.962Z,164.53
2018-02-17T23:26:58.547Z,157.10
2018-02-17T23:29:26.083Z,91.47
2018-02-17T23:31:53.662Z,125.50
2018-02-17T23:34:22.162Z,176.97
2018-02-17T23:36:50.508Z,64.43
2018-02-17T23:39:18.046Z,171.07
2018-02-17T23:41:45.609Z,59.83
2018-02-17T23:44:13.460Z,131.77
2018-02-17T23:46:41.000Z,126.47
2018-02-17T23:49:08.940Z,114.80
2018-02-17T23:51:36.511Z,54.10
2018-02-17T23:54:04.122Z,56.00
2018-02-17T23:56:31.659Z,41.90
2018-02-17T23:58:59.989Z,46.33
